createdAt,value
2022-08-17T00:00:04.290Z,21.60
2022-08-17T00:02:31.077Z,21.60
2022-08-17T00:05:02.850Z,21.60
2022-08-17T00:07:29.595Z,21.60
2022-08-17T00:09:57.529Z,21.60
2022-08-17T00:12:43.565Z,21.60
2022-08-17T00:15:12.764Z,21.60
2022-08-17T00:17:42.416Z,21.50
2022-08-17T00:20:10.852Z,21.50
2022-08-17T00:22:37.973Z,21.40
2022-08-17T00:25:08.465Z,21.40
2022-08-17T00:27:36.906Z,21.40
2022-08-17T00:30:06.945Z,21.30
2022-08-17T00:33:14.307Z,21.30
2022-08-17T00:35:34.322Z,21.20
2022-08-17T00:38:01.167Z,21.10
2022-08-17T00:40:40.660Z,21.10
2022-08-17T00:43:40.701Z,21.00
2022-08-17T00:46:11.537Z,21.00
2022-08-17T00:48:39.391Z,20.90
2022-08-17T00:51:09.277Z,20.80
2022-08-17T00:53:41.861Z,20.80
2022-08-17T00:56:17.471Z,20.70
2022-08-17T00:58:44.783Z,20.70
2022-08-17T01:01:21.733Z,20.70
2022-08-17T01:03:51.084Z,20.70
2022-08-17T01:06:18.338Z,20.70
2022-08-17T01:08:45.216Z,20.70
2022-08-17T01:11:12.116Z,20.70
2022-08-17T01:13:42.051Z,20.80
2022-08-17T01:16:28.354Z,20.70
2022-08-17T01:19:17.230Z,20.70
2022-08-17T01:21:49.927Z,20.70
2022-08-17T01:24:16.980Z,20.70
2022-08-17T01:26:45.312Z,20.70
2022-08-17T01:29:13.066Z,20.70
2022-08-17T01:31:54.816Z,20.70
2022-08-17T01:34:22.054Z,20.80
2022-08-17T01:36:50.093Z,20.70
2022-08-17T01:39:41.180Z,20.80
2022-08-17T01:42:29.606Z,20.80
2022-08-17T01:45:01.884Z,20.80
2022-08-17T01:47:28.644Z,20.70
2022-08-17T01:49:57.919Z,20.70
2022-08-17T01:52:24.693Z,20.70
2022-08-17T01:54:52.446Z,20.60
2022-08-17T01:57:19.262Z,20.60
2022-08-17T01:59:46.057Z,20.60
2022-08-17T02:02:12.808Z,20.60
2022-08-17T02:04:57.993Z,20.50
2022-08-17T02:07:27.028Z,20.50
2022-08-17T02:09:54.337Z,20.50
2022-08-17T02:12:39.444Z,20.40
2022-08-17T02:15:08.932Z,20.40
2022-08-17T02:17:36.001Z,20.40
2022-08-17T02:20:03.350Z,20.40
2022-08-17T02:22:31.019Z,20.40
2022-08-17T02:25:01.926Z,20.40
2022-08-17T02:27:29.412Z,20.30
2022-08-17T02:29:56.172Z,20.40
2022-08-17T02:32:28.020Z,20.30
2022-08-17T02:34:59.959Z,20.30
2022-08-17T02:37:28.237Z,20.30
2022-08-17T02:39:58.687Z,20.30
2022-08-17T02:42:38.230Z,20.30
2022-08-17T02:45:11.045Z,20.30
2022-08-17T02:47:38.584Z,20.20
2022-08-17T02:50:06.771Z,20.10
2022-08-17T02:52:42.864Z,20.10
2022-08-17T02:55:23.385Z,20.10
2022-08-17T02:57:51.460Z,20.10
2022-08-17T03:00:28.944Z,20.10
2022-08-17T03:02:57.300Z,20.00
2022-08-17T03:05:27.093Z,20.00
2022-08-17T03:07:53.882Z,20.00
2022-08-17T03:10:21.685Z,20.00
2022-08-17T03:12:49.774Z,19.90
2022-08-17T03:15:28.217Z,19.90
2022-08-17T03:17:56.678Z,20.00
2022-08-17T03:20:25.581Z,19.90
2022-08-17T03:22:55.179Z,19.90
2022-08-17T03:25:32.027Z,19.80
2022-08-17T03:28:01.532Z,19.80
2022-08-17T03:30:29.131Z,19.80
2022-08-17T03:32:59.959Z,19.80
2022-08-17T03:35:29.839Z,19.80
2022-08-17T03:38:00.733Z,19.80
2022-08-17T03:40:55.403Z,19.80
2022-08-17T03:43:17.649Z,19.80
2022-08-17T03:46:02.958Z,19.80
2022-08-17T03:48:49.526Z,19.70
2022-08-17T03:51:42.555Z,19.70
2022-08-17T03:54:28.571Z,19.70
2022-08-17T03:57:07.307Z,19.80
2022-08-17T03:59:35.502Z,19.80
2022-08-17T04:02:11.400Z,19.80
2022-08-17T04:04:39.201Z,19.80
2022-08-17T04:07:07.296Z,19.70
2022-08-17T04:09:34.733Z,19.70
2022-08-17T04:12:04.784Z,19.70
2022-08-17T04:14:37.875Z,19.60
2022-08-17T04:17:20.380Z,19.70
2022-08-17T04:19:47.388Z,19.70
2022-08-17T04:22:30.753Z,19.70
2022-08-17T04:25:13.233Z,19.70
2022-08-17T04:27:40.020Z,19.70
2022-08-17T04:30:07.460Z,19.70
2022-08-17T04:33:06.043Z,19.70
2022-08-17T04:35:54.044Z,19.70
2022-08-17T04:38:24.271Z,19.90
2022-08-17T04:41:10.329Z,19.90
2022-08-17T04:43:39.233Z,20.00
2022-08-17T04:46:09.105Z,20.10
2022-08-17T04:48:47.480Z,20.20
2022-08-17T04:51:15.825Z,20.30
2022-08-17T04:53:45.409Z,20.30
2022-08-17T04:56:20.815Z,20.40
2022-08-17T04:58:50.368Z,20.40
2022-08-17T05:01:24.146Z,20.40
2022-08-17T05:03:53.799Z,20.40
2022-08-17T05:06:21.259Z,20.40
2022-08-17T05:08:48.442Z,20.30
2022-08-17T05:11:15.737Z,20.10
2022-08-17T05:13:42.680Z,20.10
2022-08-17T05:16:09.712Z,20.10
2022-08-17T05:18:38.881Z,20.10
2022-08-17T05:21:07.087Z,20.00
2022-08-17T05:23:42.958Z,19.90
2022-08-17T05:26:24.791Z,19.90
2022-08-17T05:28:55.434Z,19.90
2022-08-17T05:31:24.397Z,19.90
2022-08-17T05:33:51.474Z,19.80
2022-08-17T05:36:37.946Z,19.90
2022-08-17T05:39:05.338Z,19.80
2022-08-17T05:41:32.096Z,20.00
2022-08-17T05:43:58.877Z,20.00
2022-08-17T05:46:30.279Z,20.10
2022-08-17T05:49:02.405Z,20.20
2022-08-17T05:51:44.269Z,20.30
2022-08-17T05:54:30.015Z,20.30
2022-08-17T05:57:20.876Z,20.40
2022-08-17T05:59:59.624Z,20.50
2022-08-17T06:02:48.809Z,20.60
2022-08-17T06:05:28.091Z,20.60
2022-08-17T06:08:02.514Z,20.70
2022-08-17T06:10:41.281Z,20.80
2022-08-17T06:13:17.879Z,20.80
2022-08-17T06:16:04.332Z,20.90
2022-08-17T06:19:00.956Z,21.10
2022-08-17T06:21:34.905Z,21.20
2022-08-17T06:24:24.707Z,21.20
2022-08-17T06:26:53.770Z,21.30
2022-08-17T06:29:27.046Z,21.30
2022-08-17T06:31:53.827Z,21.50
2022-08-17T06:34:21.699Z,21.60
2022-08-17T06:37:09.148Z,21.60
2022-08-17T06:40:17.677Z,21.70
2022-08-17T06:43:05.903Z,21.90
2022-08-17T06:45:49.045Z,21.90
2022-08-17T06:48:28.659Z,22.00
2022-08-17T06:51:00.226Z,22.20
2022-08-17T06:53:42.951Z,22.30
2022-08-17T06:56:21.920Z,22.40
2022-08-17T06:58:49.543Z,22.50
2022-08-17T07:01:25.082Z,22.60
2022-08-17T07:04:17.225Z,22.60
2022-08-17T07:06:59.089Z,22.70
2022-08-17T07:09:35.822Z,22.80
2022-08-17T07:12:11.201Z,22.90
2022-08-17T07:14:37.934Z,23.00
2022-08-17T07:17:09.413Z,23.10
2022-08-17T07:19:41.089Z,23.20
2022-08-17T07:22:54.463Z,23.30
2022-08-17T07:25:20.817Z,23.40
2022-08-17T07:27:54.544Z,23.50
2022-08-17T07:30:26.148Z,23.70
2022-08-17T07:32:59.448Z,23.70
2022-08-17T07:35:37.547Z,23.90
2022-08-17T07:38:26.910Z,24.00
2022-08-17T07:41:06.211Z,24.20
2022-08-17T07:43:41.758Z,24.30
2022-08-17T07:46:33.974Z,24.40
2022-08-17T07:49:03.544Z,24.60
2022-08-17T07:51:36.147Z,24.70
2022-08-17T07:54:23.247Z,24.70
2022-08-17T07:57:27.964Z,24.90
2022-08-17T08:00:03.133Z,25.10
2022-08-17T08:02:40.552Z,25.30
2022-08-17T08:05:49.456Z,25.60
2022-08-17T08:08:28.111Z,25.70
2022-08-17T08:11:09.164Z,25.90
2022-08-17T08:13:43.885Z,26.10
2022-08-17T08:16:16.705Z,26.20
2022-08-17T08:18:55.813Z,26.40
2022-08-17T08:21:43.672Z,26.50
2022-08-17T08:24:30.735Z,26.70
2022-08-17T08:27:28.050Z,26.90
2022-08-17T08:30:08.648Z,27.10
2022-08-17T08:32:48.608Z,27.20
2022-08-17T08:35:32.201Z,27.40
2022-08-17T08:38:08.062Z,27.50
2022-08-17T08:40:53.062Z,27.60
2022-08-17T08:43:19.804Z,27.70
2022-08-17T08:45:56.651Z,27.80
2022-08-17T08:48:53.639Z,28.00
2022-08-17T08:51:23.948Z,28.10
2022-08-17T08:54:12.406Z,28.30
2022-08-17T08:57:22.383Z,28.40
2022-08-17T08:59:59.756Z,28.70
2022-08-17T09:02:56.960Z,28.80
2022-08-17T09:05:23.706Z,29.00
2022-08-17T09:08:08.821Z,29.30
2022-08-17T09:10:58.451Z,29.50
2022-08-17T09:13:25.206Z,29.60
2022-08-17T09:15:59.978Z,29.70
2022-08-17T09:19:00.907Z,29.70
2022-08-17T09:22:00.562Z,29.80
2022-08-17T09:25:03.283Z,30.00
2022-08-17T09:28:00.586Z,30.20
2022-08-17T09:30:36.285Z,30.40
2022-08-17T09:33:08.513Z,30.40
2022-08-17T09:35:45.310Z,30.60
2022-08-17T09:38:19.333Z,30.80
2022-08-17T09:40:59.066Z,30.80
2022-08-17T09:43:46.905Z,30.90
2022-08-17T09:46:25.504Z,30.80
2022-08-17T09:48:56.446Z,30.90
2022-08-17T09:51:30.498Z,31.10
2022-08-17T09:54:14.706Z,31.30
2022-08-17T09:57:31.817Z,31.20
2022-08-17T10:00:13.603Z,31.30
2022-08-17T10:02:53.474Z,31.40
2022-08-17T10:05:43.197Z,31.50
2022-08-17T10:08:35.112Z,31.50
2022-08-17T10:11:33.770Z,31.60
2022-08-17T10:14:36.499Z,31.60
2022-08-17T10:17:07.641Z,31.60
2022-08-17T10:19:40.337Z,31.70
2022-08-17T10:22:42.880Z,31.70
2022-08-17T10:25:53.669Z,31.90
2022-08-17T10:28:28.791Z,32.00
2022-08-17T10:31:23.295Z,32.20
2022-08-17T10:34:00.624Z,32.10
2022-08-17T10:36:54.710Z,32.10
2022-08-17T10:39:51.947Z,32.00
2022-08-17T10:42:37.825Z,31.80
2022-08-17T10:45:18.113Z,31.50
2022-08-17T10:48:07.267Z,31.40
2022-08-17T10:50:55.740Z,31.50
2022-08-17T10:53:31.715Z,31.60
2022-08-17T10:56:13.811Z,31.80
2022-08-17T10:58:49.730Z,31.80
2022-08-17T11:01:17.585Z,31.90
2022-08-17T11:03:56.725Z,32.00
2022-08-17T11:06:38.515Z,32.20
2022-08-17T11:09:34.962Z,32.30
2022-08-17T11:12:20.540Z,32.60
2022-08-17T11:15:03.019Z,32.80
2022-08-17T11:17:38.918Z,32.80
2022-08-17T11:20:32.377Z,32.80
2022-08-17T11:23:24.630Z,32.80
2022-08-17T11:25:55.369Z,32.80
2022-08-17T11:28:34.343Z,32.60
2022-08-17T11:31:40.044Z,32.80
2022-08-17T11:34:06.811Z,32.70
2022-08-17T11:36:45.652Z,32.70
2022-08-17T11:39:30.495Z,32.70
2022-08-17T11:42:29.749Z,32.90
2022-08-17T11:45:03.133Z,33.10
2022-08-17T11:51:33.473Z,33.10
2022-08-17T11:54:31.529Z,32.90
2022-08-17T11:56:54.883Z,33.10
2022-08-17T11:59:33.456Z,32.80
2022-08-17T12:02:03.146Z,32.60
2022-08-17T12:04:32.537Z,32.50
2022-08-17T12:07:08.605Z,32.50
2022-08-17T12:09:41.574Z,32.50
2022-08-17T12:12:16.792Z,32.60
2022-08-17T12:17:42.713Z,32.70
2022-08-17T12:20:34.684Z,32.80
2022-08-17T12:23:23.006Z,32.90
2022-08-17T12:25:56.768Z,33.00
2022-08-17T12:28:33.461Z,33.10
2022-08-17T12:31:11.726Z,33.10
2022-08-17T12:33:43.756Z,33.20
2022-08-17T12:36:17.586Z,33.50
2022-08-17T12:38:59.469Z,33.50
2022-08-17T12:41:46.891Z,33.00
2022-08-17T12:44:21.846Z,32.60
2022-08-17T12:46:54.697Z,32.90
2022-08-17T12:49:22.933Z,32.90
2022-08-17T12:51:51.573Z,33.00
2022-08-17T12:54:31.565Z,32.90
2022-08-17T12:57:05.427Z,32.90
2022-08-17T12:59:33.200Z,32.90
2022-08-17T13:02:01.200Z,32.80
2022-08-17T13:04:29.825Z,32.90
2022-08-17T13:06:59.721Z,32.80
2022-08-17T13:09:35.249Z,32.70
2022-08-17T13:12:07.774Z,32.80
2022-08-17T13:14:35.263Z,32.80
2022-08-17T13:17:08.532Z,32.90
2022-08-17T13:19:49.428Z,32.80
2022-08-17T13:22:18.274Z,32.70
2022-08-17T13:24:55.658Z,32.50
2022-08-17T13:27:25.584Z,32.30
2022-08-17T13:30:02.288Z,32.10
2022-08-17T13:32:48.590Z,32.00
2022-08-17T13:35:39.038Z,31.90
2022-08-17T13:38:10.474Z,31.90
2022-08-17T13:40:43.333Z,31.90
2022-08-17T13:43:11.640Z,31.80
2022-08-17T13:45:50.752Z,31.70
2022-08-17T13:48:29.584Z,31.60
2022-08-17T13:50:59.561Z,31.50
2022-08-17T13:53:35.961Z,31.40
2022-08-17T13:56:37.950Z,31.30
2022-08-17T13:59:12.972Z,31.20
2022-08-17T14:01:53.860Z,31.00
2022-08-17T14:04:27.730Z,31.00
2022-08-17T14:07:10.455Z,31.00
2022-08-17T14:09:57.663Z,31.10
2022-08-17T14:12:27.614Z,31.20
2022-08-17T14:14:56.257Z,31.30
2022-08-17T14:17:24.106Z,31.30
2022-08-17T14:19:51.667Z,31.40
2022-08-17T14:22:24.568Z,31.50
2022-08-17T14:24:51.752Z,31.80
2022-08-17T14:27:20.387Z,31.90
2022-08-17T14:29:47.912Z,31.90
2022-08-17T14:32:19.888Z,31.90
2022-08-17T14:34:47.318Z,31.90
2022-08-17T14:37:14.083Z,31.90
2022-08-17T14:39:40.903Z,31.80
2022-08-17T14:42:08.458Z,31.60
2022-08-17T14:44:36.213Z,31.50
2022-08-17T14:47:04.305Z,31.60
2022-08-17T14:49:31.582Z,31.60
2022-08-17T14:52:01.831Z,31.50
2022-08-17T14:54:34.063Z,31.40
2022-08-17T14:57:23.329Z,31.20
2022-08-17T14:59:53.234Z,31.10
2022-08-17T15:02:29.758Z,30.90
2022-08-17T15:05:02.251Z,30.90
2022-08-17T15:07:30.958Z,30.70
2022-08-17T15:10:00.886Z,30.70
2022-08-17T15:12:32.682Z,30.90
2022-08-17T15:15:01.362Z,30.70
2022-08-17T15:17:43.698Z,30.60
2022-08-17T15:20:17.978Z,30.40
2022-08-17T15:22:46.425Z,30.30
2022-08-17T15:25:13.826Z,30.30
2022-08-17T15:27:40.779Z,30.30
2022-08-17T15:30:09.848Z,30.30
2022-08-17T15:32:39.654Z,30.30
2022-08-17T15:35:09.038Z,30.40
2022-08-17T15:37:37.390Z,30.40
2022-08-17T15:40:05.857Z,30.40
2022-08-17T15:42:34.021Z,30.50
2022-08-17T15:45:09.709Z,30.40
2022-08-17T15:47:37.093Z,30.50
2022-08-17T15:50:06.431Z,30.30
2022-08-17T15:52:37.985Z,30.30
2022-08-17T15:55:06.322Z,30.30
2022-08-17T15:57:34.664Z,30.20
2022-08-17T16:00:01.895Z,30.20
2022-08-17T16:03:44.837Z,30.10
2022-08-17T16:05:24.767Z,30.20
2022-08-17T16:07:52.619Z,30.20
2022-08-17T16:10:20.930Z,30.30
2022-08-17T16:12:49.444Z,30.20
2022-08-17T16:15:17.752Z,30.20
2022-08-17T16:17:44.482Z,30.20
2022-08-17T16:20:20.161Z,30.20
2022-08-17T16:22:49.889Z,30.10
2022-08-17T16:25:52.420Z,30.10
2022-08-17T16:28:15.929Z,30.00
2022-08-17T16:30:42.736Z,30.00
2022-08-17T16:33:11.504Z,29.90
2022-08-17T16:35:38.317Z,30.00
2022-08-17T16:38:05.235Z,30.00
2022-08-17T16:40:35.966Z,30.00
2022-08-17T16:43:04.155Z,29.90
2022-08-17T16:45:36.824Z,29.90
2022-08-17T16:48:04.376Z,29.90
2022-08-17T16:50:32.250Z,29.80
2022-08-17T16:53:10.746Z,29.80
2022-08-17T16:55:38.378Z,29.70
2022-08-17T16:58:06.279Z,29.70
2022-08-17T17:00:34.051Z,29.60
2022-08-17T17:03:18.114Z,29.60
2022-08-17T17:06:13.433Z,29.60
2022-08-17T17:08:48.332Z,29.50
2022-08-17T17:11:26.971Z,29.40
2022-08-17T17:14:01.596Z,29.30
2022-08-17T17:16:33.857Z,29.20
2022-08-17T17:19:12.349Z,29.20
2022-08-17T17:22:11.303Z,29.10
2022-08-17T17:24:50.162Z,29.10
2022-08-17T17:27:56.179Z,29.00
2022-08-17T17:30:42.657Z,28.90
2022-08-17T17:33:11.565Z,28.80
2022-08-17T17:35:47.100Z,28.80
2022-08-17T17:38:28.944Z,28.70
2022-08-17T17:41:02.234Z,28.60
2022-08-17T17:43:44.592Z,28.50
2022-08-17T17:46:27.624Z,28.50
2022-08-17T17:48:57.539Z,28.40
2022-08-17T17:52:06.700Z,28.40
2022-08-17T17:54:52.656Z,28.40
2022-08-17T17:57:40.487Z,28.30
2022-08-17T18:00:21.996Z,28.30
2022-08-17T18:02:57.317Z,28.20
2022-08-17T18:05:55.094Z,28.20
2022-08-17T18:08:38.988Z,28.20
2022-08-17T18:11:35.407Z,28.10
2022-08-17T18:14:31.343Z,28.10
2022-08-17T18:17:00.441Z,28.00
2022-08-17T18:19:29.740Z,27.90
2022-08-17T18:22:06.859Z,27.90
2022-08-17T18:24:39.869Z,27.80
2022-08-17T18:27:27.848Z,27.70
2022-08-17T18:29:57.443Z,27.70
2022-08-17T18:32:26.174Z,27.60
2022-08-17T18:35:01.203Z,27.50
2022-08-17T18:37:43.340Z,27.40
2022-08-17T18:40:16.531Z,27.40
2022-08-17T18:42:44.305Z,27.30
2022-08-17T18:45:11.485Z,27.20
2022-08-17T18:47:54.065Z,27.20
2022-08-17T18:50:46.902Z,27.10
2022-08-17T18:53:33.933Z,27.00
2022-08-17T18:56:30.487Z,27.00
2022-08-17T18:59:18.037Z,26.90
2022-08-17T19:01:59.875Z,26.80
2022-08-17T19:05:01.643Z,26.80
2022-08-17T19:07:30.566Z,26.70
2022-08-17T19:10:05.206Z,26.70
2022-08-17T19:12:39.943Z,26.60
2022-08-17T19:15:09.323Z,26.60
2022-08-17T19:17:46.764Z,26.50
2022-08-17T19:20:32.582Z,26.50
2022-08-17T19:23:05.136Z,26.40
2022-08-17T19:25:36.353Z,26.30
2022-08-17T19:28:21.738Z,26.30
2022-08-17T19:30:54.194Z,26.30
2022-08-17T19:33:21.239Z,26.20
2022-08-17T19:35:58.840Z,26.20
2022-08-17T19:39:03.153Z,26.10
2022-08-17T19:41:45.099Z,26.10
2022-08-17T19:44:20.848Z,26.10
2022-08-17T19:47:01.866Z,26.00
2022-08-17T19:49:41.397Z,26.00
2022-08-17T19:52:47.409Z,25.90
2022-08-17T19:55:20.597Z,25.90
2022-08-17T19:57:52.763Z,25.80
2022-08-17T20:00:19.723Z,25.80
2022-08-17T20:03:16.191Z,25.80
2022-08-17T20:06:14.082Z,25.70
2022-08-17T20:08:51.568Z,25.70
2022-08-17T20:11:28.147Z,25.70
2022-08-17T20:14:23.732Z,25.60
2022-08-17T20:16:51.197Z,25.60
2022-08-17T20:19:27.924Z,25.60
2022-08-17T20:22:00.456Z,25.50
2022-08-17T20:24:38.625Z,25.50
2022-08-17T20:27:20.192Z,25.50
2022-08-17T20:30:05.549Z,25.40
2022-08-17T20:32:56.917Z,25.40
2022-08-17T20:35:34.333Z,25.30
2022-08-17T20:38:44.663Z,25.30
2022-08-17T20:41:15.285Z,25.30
2022-08-17T20:43:49.014Z,25.20
2022-08-17T20:46:41.422Z,25.20
2022-08-17T20:49:11.213Z,25.10
2022-08-17T20:52:00.791Z,25.10
2022-08-17T20:54:50.349Z,25.00
2022-08-17T20:57:32.405Z,25.00
2022-08-17T21:00:15.019Z,25.00
2022-08-17T21:02:45.144Z,25.00
2022-08-17T21:05:59.895Z,24.90
2022-08-17T21:08:35.902Z,24.90
2022-08-17T21:12:02.240Z,24.80
2022-08-17T21:14:38.028Z,24.80
2022-08-17T21:17:29.645Z,24.80
2022-08-17T21:20:26.458Z,24.80
2022-08-17T21:23:05.264Z,24.70
2022-08-17T21:26:02.564Z,24.70
2022-08-17T21:29:01.665Z,24.60
2022-08-17T21:32:15.862Z,24.60
2022-08-17T21:35:27.231Z,24.60
2022-08-17T21:38:03.833Z,24.60
2022-08-17T21:40:33.850Z,24.60
2022-08-17T21:43:14.445Z,24.60
2022-08-17T21:45:42.936Z,24.60
2022-08-17T21:48:15.267Z,24.50
2022-08-17T21:50:46.187Z,24.50
2022-08-17T21:53:22.667Z,24.40
2022-08-17T21:55:51.498Z,24.50
2022-08-17T21:58:35.118Z,24.50
2022-08-17T22:01:16.966Z,24.40
2022-08-17T22:03:46.542Z,24.40
2022-08-17T22:06:41.437Z,24.40
2022-08-17T22:09:25.808Z,24.30
2022-08-17T22:11:58.268Z,24.20
2022-08-17T22:14:51.537Z,24.20
2022-08-17T22:17:21.249Z,24.20
2022-08-17T22:19:51.580Z,24.20
2022-08-17T22:22:59.554Z,24.20
2022-08-17T22:25:28.066Z,24.20
2022-08-17T22:28:00.233Z,24.20
2022-08-17T22:30:40.755Z,24.10
2022-08-17T22:33:39.550Z,24.10
2022-08-17T22:36:34.666Z,24.10
2022-08-17T22:39:09.994Z,24.00
2022-08-17T22:41:42.965Z,24.00
2022-08-17T22:44:20.522Z,24.00
2022-08-17T22:46:58.807Z,24.00
2022-08-17T22:49:31.213Z,23.90
2022-08-17T22:52:16.369Z,23.90
2022-08-17T22:55:09.320Z,23.90
2022-08-17T22:57:55.566Z,23.90
2022-08-17T23:00:39.516Z,23.80
2022-08-17T23:03:20.255Z,23.80
2022-08-17T23:06:09.542Z,23.80
2022-08-17T23:09:04.597Z,23.80
2022-08-17T23:11:48.668Z,23.70
2022-08-17T23:14:20.944Z,23.70
2022-08-17T23:16:50.049Z,23.70
2022-08-17T23:19:19.884Z,23.70
2022-08-17T23:21:47.171Z,23.70
2022-08-17T23:24:24.890Z,23.70
2022-08-17T23:26:52.279Z,23.70
2022-08-17T23:29:21.513Z,23.70
2022-08-17T23:31:49.586Z,23.60
2022-08-17T23:34:18.457Z,23.60
2022-08-17T23:36:55.070Z,23.60
2022-08-17T23:39:27.303Z,23.60
2022-08-17T23:41:58.959Z,23.60
2022-08-17T23:44:26.619Z,23.50
2022-08-17T23:46:54.267Z,23.50
2022-08-17T23:49:21.273Z,23.50
2022-08-17T23:51:48.902Z,23.40
2022-08-17T23:54:35.069Z,23.40
2022-08-17T23:57:02.781Z,23.40
2022-08-17T23:59:29.517Z,23.40
